createdAt,value
2019-03-26T00:00:23.282Z,34.43
2019-03-26T00:05:29.134Z,31.13
2019-03-26T00:10:34.744Z,29.83
2019-03-26T00:15:40.261Z,34.50
2019-03-26T00:20:45.765Z,30.30
2019-03-26T00:25:51.733Z,23.37
2019-03-26T00:30:57.222Z,22.97
2019-03-26T00:36:03.161Z,24.90
2019-03-26T00:41:08.704Z,27.73
2019-03-26T00:46:14.272Z,26.17
2019-03-26T00:51:19.868Z,23.83
2019-03-26T00:56:25.394Z,25.33
2019-03-26T01:01:31.124Z,22.90
2019-03-26T01:06:36.862Z,21.97
2019-03-26T01:11:42.353Z,24.60
2019-03-26T01:16:47.870Z,24.43
2019-03-26T01:21:54.402Z,29.20
2019-03-26T01:27:00.122Z,33.67
2019-03-26T01:32:05.865Z,33.57
2019-03-26T01:37:11.398Z,35.70
2019-03-26T01:42:16.929Z,28.43
2019-03-26T01:47:22.587Z,29.20
2019-03-26T01:52:28.382Z,32.23
2019-03-26T01:57:33.849Z,33.73
2019-03-26T02:02:39.464Z,36.10
2019-03-26T02:07:44.980Z,30.07
2019-03-26T02:12:50.714Z,37.60
2019-03-26T02:17:56.324Z,29.97
2019-03-26T02:23:01.889Z,32.67
2019-03-26T02:28:07.456Z,32.53
2019-03-26T02:33:13.045Z,28.03
2019-03-26T02:38:18.581Z,27.37
2019-03-26T02:43:24.296Z,24.77
2019-03-26T02:48:29.822Z,28.13
2019-03-26T02:53:36.605Z,26.53
2019-03-26T02:58:42.342Z,30.07
2019-03-26T03:03:47.869Z,27.63
2019-03-26T03:08:53.403Z,35.97
2019-03-26T03:14:00.135Z,40.47
2019-03-26T03:19:05.703Z,33.10
2019-03-26T03:24:14.166Z,34.00
2019-03-26T03:29:18.723Z,31.60
2019-03-26T03:34:24.785Z,31.90
2019-03-26T03:39:30.160Z,33.67
2019-03-26T03:44:35.724Z,40.73
2019-03-26T03:49:41.646Z,36.90
2019-03-26T03:54:47.718Z,36.77
2019-03-26T03:59:53.582Z,40.43
2019-03-26T04:04:59.033Z,39.63
2019-03-26T04:10:04.961Z,46.80
2019-03-26T04:15:10.409Z,40.90
2019-03-26T04:20:15.936Z,40.83
2019-03-26T04:25:21.382Z,35.50
2019-03-26T04:30:31.532Z,41.03
2019-03-26T04:35:37.076Z,42.33
2019-03-26T04:40:42.996Z,35.97
2019-03-26T04:45:48.589Z,46.87
2019-03-26T04:50:54.562Z,46.10
2019-03-26T04:56:00.112Z,46.10
2019-03-26T05:01:05.660Z,58.07
2019-03-26T05:06:11.190Z,56.50
2019-03-26T05:11:16.682Z,54.13
2019-03-26T05:16:22.219Z,53.40
2019-03-26T05:21:27.720Z,52.23
2019-03-26T05:26:33.267Z,49.83
2019-03-26T05:31:39.343Z,51.73
2019-03-26T05:36:51.180Z,55.17
2019-03-26T05:41:52.620Z,53.50
2019-03-26T05:47:01.453Z,56.90
2019-03-26T05:52:05.812Z,56.97
2019-03-26T05:57:11.436Z,51.20
2019-03-26T06:02:18.101Z,50.37
2019-03-26T06:07:23.914Z,55.20
2019-03-26T06:12:32.103Z,46.57
2019-03-26T06:17:37.867Z,48.77
2019-03-26T06:22:43.432Z,40.60
2019-03-26T06:27:49.046Z,40.97
2019-03-26T06:32:54.662Z,43.53
2019-03-26T06:38:00.177Z,49.33
2019-03-26T06:43:05.793Z,47.40
2019-03-26T06:48:11.536Z,50.87
2019-03-26T06:53:17.063Z,44.17
2019-03-26T06:58:22.701Z,48.80
2019-03-26T07:03:28.272Z,45.30
2019-03-26T07:08:34.999Z,41.00
2019-03-26T07:13:40.617Z,34.27
2019-03-26T07:18:46.177Z,33.07
2019-03-26T07:23:52.135Z,30.93
2019-03-26T07:28:58.244Z,34.67
2019-03-26T07:34:07.021Z,28.10
2019-03-26T07:39:11.070Z,29.37
2019-03-26T07:44:16.661Z,27.10
2019-03-26T07:49:24.227Z,27.57
2019-03-26T07:54:32.630Z,31.80
2019-03-26T07:59:37.534Z,29.13
2019-03-26T08:04:43.295Z,27.67
2019-03-26T08:09:50.612Z,25.00
2019-03-26T08:14:59.415Z,26.30
2019-03-26T08:20:05.374Z,25.23
2019-03-26T08:25:11.630Z,20.23
2019-03-26T08:30:17.361Z,19.73
2019-03-26T08:35:23.084Z,19.37
2019-03-26T08:40:29.030Z,19.47
2019-03-26T08:45:35.866Z,22.90
2019-03-26T08:50:41.564Z,22.50
2019-03-26T08:55:47.070Z,28.43
2019-03-26T09:00:52.834Z,25.17
2019-03-26T09:05:58.632Z,20.90
2019-03-26T09:11:04.516Z,23.93
2019-03-26T09:16:10.031Z,19.40
2019-03-26T09:21:15.796Z,23.47
2019-03-26T09:26:21.496Z,26.97
2019-03-26T09:31:27.568Z,26.17
2019-03-26T09:36:34.319Z,24.07
2019-03-26T09:41:40.060Z,23.07
2019-03-26T09:46:45.685Z,24.60
2019-03-26T09:51:51.276Z,24.30
2019-03-26T09:56:57.716Z,19.33
2019-03-26T10:02:03.251Z,16.70
2019-03-26T10:07:20.759Z,16.90
2019-03-26T10:12:18.036Z,21.10
2019-03-26T10:17:25.756Z,21.83
2019-03-26T10:22:31.402Z,20.23
2019-03-26T10:27:36.961Z,16.20
2019-03-26T10:32:43.586Z,21.00
2019-03-26T10:37:49.418Z,16.93
2019-03-26T10:42:59.084Z,17.40
2019-03-26T10:48:04.978Z,18.87
2019-03-26T10:53:10.956Z,19.57
2019-03-26T10:58:17.715Z,21.80
2019-03-26T11:03:23.363Z,19.67
2019-03-26T11:08:29.043Z,18.20
2019-03-26T11:13:34.984Z,15.83
2019-03-26T11:18:40.690Z,17.43
2019-03-26T11:23:46.340Z,19.47
2019-03-26T11:28:51.938Z,16.17
2019-03-26T11:33:57.770Z,16.13
2019-03-26T11:39:05.094Z,17.67
2019-03-26T11:44:11.188Z,19.47
2019-03-26T11:49:17.820Z,16.30
2019-03-26T11:54:23.896Z,18.63
2019-03-26T11:59:30.048Z,16.80
2019-03-26T12:04:36.176Z,15.07
2019-03-26T12:09:46.539Z,16.23
2019-03-26T12:15:04.736Z,22.67
2019-03-26T12:20:10.631Z,27.07
2019-03-26T12:25:16.336Z,16.63
2019-03-26T12:30:38.301Z,18.53
2019-03-26T12:35:44.072Z,14.27
2019-03-26T12:40:50.448Z,16.23
2019-03-26T12:45:56.352Z,15.03
2019-03-26T12:51:03.030Z,14.97
2019-03-26T12:56:08.850Z,13.90
2019-03-26T13:01:14.572Z,15.97
2019-03-26T13:06:20.148Z,15.83
2019-03-26T13:11:26.151Z,15.83
2019-03-26T13:16:31.784Z,15.80
2019-03-26T13:21:37.726Z,20.33
2019-03-26T13:26:44.546Z,17.00
2019-03-26T13:31:50.096Z,18.40
2019-03-26T13:36:55.871Z,17.20
2019-03-26T13:42:01.744Z,16.67
2019-03-26T13:47:12.391Z,14.47
2019-03-26T13:52:17.953Z,16.13
2019-03-26T13:57:23.742Z,16.83
2019-03-26T14:02:29.322Z,18.73
2019-03-26T14:07:35.010Z,17.93
2019-03-26T14:12:40.644Z,18.97
2019-03-26T14:17:46.286Z,20.03
2019-03-26T14:22:51.840Z,15.63
2019-03-26T14:27:57.496Z,15.07
2019-03-26T14:33:03.058Z,20.70
2019-03-26T14:38:08.852Z,18.37
2019-03-26T14:43:14.417Z,19.10
2019-03-26T14:48:20.139Z,18.83
2019-03-26T14:53:25.736Z,16.87
2019-03-26T14:58:33.448Z,15.77
2019-03-26T15:03:39.217Z,15.60
2019-03-26T15:08:44.937Z,19.27
2019-03-26T15:13:50.841Z,21.13
2019-03-26T15:18:56.414Z,18.20
2019-03-26T15:24:01.921Z,14.70
2019-03-26T15:29:08.658Z,17.90
2019-03-26T15:34:19.280Z,17.10
2019-03-26T15:39:25.552Z,21.83
2019-03-26T15:44:31.316Z,17.47
2019-03-26T15:49:37.000Z,18.23
2019-03-26T15:54:42.894Z,14.77
2019-03-26T15:59:48.643Z,15.33
2019-03-26T16:04:54.600Z,16.00
2019-03-26T16:10:00.468Z,22.53
2019-03-26T16:15:06.986Z,19.30
2019-03-26T16:20:12.738Z,16.80
2019-03-26T16:25:18.600Z,16.10
2019-03-26T16:30:24.292Z,16.80
2019-03-26T16:35:29.942Z,19.67
2019-03-26T16:40:35.597Z,21.90
2019-03-26T16:45:41.136Z,21.10
2019-03-26T16:50:46.787Z,20.87
2019-03-26T16:55:52.435Z,21.60
2019-03-26T17:00:58.230Z,22.67
2019-03-26T17:06:04.251Z,24.43
2019-03-26T17:11:09.946Z,24.80
2019-03-26T17:16:15.617Z,26.70
2019-03-26T17:21:21.233Z,27.83
2019-03-26T17:26:26.938Z,22.57
2019-03-26T17:31:32.748Z,24.47
2019-03-26T17:36:38.674Z,20.27
2019-03-26T17:41:44.412Z,21.13
2019-03-26T17:46:50.116Z,24.70
2019-03-26T17:51:55.919Z,23.40
2019-03-26T17:57:02.292Z,20.73
2019-03-26T18:02:07.935Z,20.73
2019-03-26T18:07:13.568Z,21.67
2019-03-26T18:12:30.126Z,27.97
2019-03-26T18:17:26.820Z,27.43
2019-03-26T18:22:32.936Z,21.03
2019-03-26T18:27:38.392Z,17.97
2019-03-26T18:32:44.044Z,20.00
2019-03-26T18:37:49.926Z,21.23
2019-03-26T18:42:55.572Z,17.63
2019-03-26T18:48:02.548Z,19.43
2019-03-26T18:53:09.319Z,19.10
2019-03-26T18:58:15.038Z,19.47
2019-03-26T19:03:21.711Z,20.00
2019-03-26T19:08:27.257Z,20.87
2019-03-26T19:13:33.127Z,21.20
2019-03-26T19:18:38.714Z,19.97
2019-03-26T19:23:45.506Z,19.60
2019-03-26T19:28:56.562Z,21.40
2019-03-26T19:34:02.268Z,21.53
2019-03-26T19:39:08.791Z,21.17
2019-03-26T19:44:14.922Z,17.93
2019-03-26T19:49:20.518Z,20.37
2019-03-26T19:54:26.212Z,20.80
2019-03-26T19:59:31.964Z,22.43
2019-03-26T20:04:37.541Z,26.03
2019-03-26T20:09:43.120Z,22.97
2019-03-26T20:14:52.074Z,21.93
2019-03-26T20:19:57.967Z,25.70
2019-03-26T20:25:03.680Z,26.70
2019-03-26T20:30:09.893Z,25.47
2019-03-26T20:35:16.103Z,26.30
2019-03-26T20:40:21.970Z,23.77
2019-03-26T20:45:27.783Z,23.13
2019-03-26T20:50:33.251Z,28.70
2019-03-26T20:55:39.002Z,26.70
2019-03-26T21:00:44.628Z,25.43
2019-03-26T21:05:50.584Z,23.60
2019-03-26T21:10:56.119Z,22.23
2019-03-26T21:16:01.789Z,25.60
2019-03-26T21:21:07.349Z,22.80
2019-03-26T21:26:13.290Z,23.50
2019-03-26T21:31:19.450Z,23.53
2019-03-26T21:36:26.911Z,24.30
2019-03-26T21:41:32.624Z,21.93
2019-03-26T21:46:38.505Z,23.13
2019-03-26T21:51:44.547Z,25.30
2019-03-26T21:56:50.178Z,30.07
2019-03-26T22:01:55.885Z,34.10
2019-03-26T22:07:01.635Z,30.97
2019-03-26T22:12:07.402Z,34.97
2019-03-26T22:17:13.126Z,38.97
2019-03-26T22:22:18.655Z,34.90
2019-03-26T22:27:24.523Z,37.50
2019-03-26T22:32:30.027Z,38.93
2019-03-26T22:37:35.681Z,29.90
2019-03-26T22:42:41.769Z,32.07
2019-03-26T22:47:47.289Z,36.93
2019-03-26T22:52:52.883Z,32.83
2019-03-26T22:57:58.632Z,29.30
2019-03-26T23:03:04.782Z,23.13
2019-03-26T23:08:10.352Z,26.53
2019-03-26T23:13:16.151Z,30.87
2019-03-26T23:18:21.899Z,29.83
2019-03-26T23:23:27.871Z,24.73
2019-03-26T23:28:34.123Z,25.90
2019-03-26T23:33:39.735Z,29.40
2019-03-26T23:38:45.419Z,27.63
2019-03-26T23:43:50.993Z,25.57
2019-03-26T23:48:56.624Z,26.93
2019-03-26T23:54:03.348Z,28.83
2019-03-26T23:59:08.839Z,24.40
